sensor_id;sensor_type;location;lat;lon;timestamp;pressure;altitude;pressure_sealevel;temperature;humidity
11314;BME280;5712;48.858;9.206;2022-07-29T00:01:37;97953.56;;;18.95;100.00
11314;BME280;5712;48.858;9.206;2022-07-29T00:04:04;97959.72;;;18.87;100.00
11314;BME280;5712;48.858;9.206;2022-07-29T00:06:30;97961.50;;;18.79;100.00
11314;BME280;5712;48.858;9.206;2022-07-29T00:08:57;97960.97;;;18.67;100.00
11314;BME280;5712;48.858;9.206;2022-07-29T00:11:23;97955.56;;;18.59;100.00
11314;BME280;5712;48.858;9.206;2022-07-29T00:13:50;97953.50;;;18.53;100.00
11314;BME280;5712;48.858;9.206;2022-07-29T00:16:18;97944.44;;;18.46;100.00
11314;BME280;5712;48.858;9.206;2022-07-29T00:18:44;97944.44;;;18.46;100.00
11314;BME280;5712;48.858;9.206;2022-07-29T00:21:11;97933.72;;;18.38;100.00
11314;BME280;5712;48.858;9.206;2022-07-29T00:23:37;97924.66;;;18.31;100.00
11314;BME280;5712;48.858;9.206;2022-07-29T00:26:04;97934.94;;;18.26;100.00
11314;BME280;5712;48.858;9.206;2022-07-29T00:28:30;97928.56;;;18.19;100.00
11314;BME280;5712;48.858;9.206;2022-07-29T00:30:57;97936.88;;;18.16;100.00
11314;BME280;5712;48.858;9.206;2022-07-29T00:33:25;97928.34;;;18.13;100.00
11314;BME280;5712;48.858;9.206;2022-07-29T00:35:51;97916.25;;;18.09;100.00
11314;BME280;5712;48.858;9.206;2022-07-29T00:38:18;97922.78;;;18.06;100.00
11314;BME280;5712;48.858;9.206;2022-07-29T00:40:45;97928.44;;;18.03;100.00
11314;BME280;5712;48.858;9.206;2022-07-29T00:43:13;97927.91;;;18.00;100.00
11314;BME280;5712;48.858;9.206;2022-07-29T00:45:40;97927.91;;;18.00;100.00
11314;BME280;5712;48.858;9.206;2022-07-29T00:48:07;97922.94;;;18.05;100.00
11314;BME280;5712;48.858;9.206;2022-07-29T00:50:35;97925.75;;;18.03;100.00
11314;BME280;5712;48.858;9.206;2022-07-29T00:53:03;97921.72;;;17.99;100.00
11314;BME280;5712;48.858;9.206;2022-07-29T00:55:30;97920.03;;;17.98;100.00
11314;BME280;5712;48.858;9.206;2022-07-29T00:57:56;97913.66;;;17.91;100.00
11314;BME280;5712;48.858;9.206;2022-07-29T01:00:25;97919.63;;;17.85;100.00
11314;BME280;5712;48.858;9.206;2022-07-29T01:02:52;97920.41;;;17.78;100.00
11314;BME280;5712;48.858;9.206;2022-07-29T01:05:21;97914.38;;;17.76;100.00
11314;BME280;5712;48.858;9.206;2022-07-29T01:07:51;97916.38;;;17.74;100.00
11314;BME280;5712;48.858;9.206;2022-07-29T01:10:19;97912.03;;;17.73;100.00
11314;BME280;5712;48.858;9.206;2022-07-29T01:12:49;97906.81;;;17.71;100.00
11314;BME280;5712;48.858;9.206;2022-07-29T01:15:16;97904.16;;;17.71;100.00
11314;BME280;5712;48.858;9.206;2022-07-29T01:17:46;97906.97;;;17.70;100.00
11314;BME280;5712;48.858;9.206;2022-07-29T01:20:20;97904.06;;;17.63;100.00
11314;BME280;5712;48.858;9.206;2022-07-29T01:23:11;97915.41;;;17.57;100.00
11314;BME280;5712;48.858;9.206;2022-07-29T01:25:57;97904.72;;;17.57;100.00
11314;BME280;5712;48.858;9.206;2022-07-29T01:28:49;97904.00;;;17.55;100.00
11314;BME280;5712;48.858;9.206;2022-07-29T01:31:28;97904.72;;;17.57;100.00
11314;BME280;5712;48.858;9.206;2022-07-29T01:34:01;97902.72;;;17.59;100.00
11314;BME280;5712;48.858;9.206;2022-07-29T01:36:31;97903.25;;;17.63;100.00
11314;BME280;5712;48.858;9.206;2022-07-29T01:39:05;97908.06;;;17.59;100.00
11314;BME280;5712;48.858;9.206;2022-07-29T01:41:34;97909.34;;;17.55;100.00
11314;BME280;5712;48.858;9.206;2022-07-29T01:44:10;97908.69;;;17.53;100.00
11314;BME280;5712;48.858;9.206;2022-07-29T01:46:40;97904.63;;;17.49;100.00
11314;BME280;5712;48.858;9.206;2022-07-29T01:49:11;97902.72;;;17.42;100.00
11314;BME280;5712;48.858;9.206;2022-07-29T01:51:43;97901.47;;;17.36;100.00
11314;BME280;5712;48.858;9.206;2022-07-29T01:54:16;97905.44;;;17.32;100.00
11314;BME280;5712;48.858;9.206;2022-07-29T01:56:47;97898.44;;;17.31;100.00
11314;BME280;5712;48.858;9.206;2022-07-29T01:59:18;97906.59;;;17.30;100.00
11314;BME280;5712;48.858;9.206;2022-07-29T02:01:46;97905.44;;;17.32;100.00
11314;BME280;5712;48.858;9.206;2022-07-29T02:04:15;97895.38;;;17.26;100.00
11314;BME280;5712;48.858;9.206;2022-07-29T02:06:44;97901.03;;;17.23;100.00
11314;BME280;5712;48.858;9.206;2022-07-29T02:09:12;97894.63;;;17.16;100.00
11314;BME280;5712;48.858;9.206;2022-07-29T02:11:43;97894.63;;;17.16;100.00
11314;BME280;5712;48.858;9.206;2022-07-29T02:14:15;97891.81;;;17.18;100.00
11314;BME280;5712;48.858;9.206;2022-07-29T02:16:44;97882.28;;;17.15;100.00
11314;BME280;5712;48.858;9.206;2022-07-29T02:19:12;97882.56;;;17.12;100.00
11314;BME280;5712;48.858;9.206;2022-07-29T02:21:40;97885.38;;;17.11;100.00
11314;BME280;5712;48.858;9.206;2022-07-29T02:24:11;97882.03;;;17.09;100.00
11314;BME280;5712;48.858;9.206;2022-07-29T02:26:39;97883.03;;;17.08;100.00
11314;BME280;5712;48.858;9.206;2022-07-29T02:29:06;97881.88;;;17.10;100.00
11314;BME280;5712;48.858;9.206;2022-07-29T02:31:38;97884.44;;;17.02;100.00
11314;BME280;5712;48.858;9.206;2022-07-29T02:34:08;97884.63;;;17.01;100.00
11314;BME280;5712;48.858;9.206;2022-07-29T02:36:36;97883.56;;;16.94;100.00
11314;BME280;5712;48.858;9.206;2022-07-29T02:39:03;97886.38;;;16.92;100.00
11314;BME280;5712;48.858;9.206;2022-07-29T02:41:36;97886.97;;;16.86;100.00
11314;BME280;5712;48.858;9.206;2022-07-29T02:44:09;97890.91;;;16.82;100.00
11314;BME280;5712;48.858;9.206;2022-07-29T02:46:41;97889.56;;;16.78;100.00
11314;BME280;5712;48.858;9.206;2022-07-29T02:49:13;97888.47;;;16.71;100.00
11314;BME280;5712;48.858;9.206;2022-07-29T02:51:44;97894.91;;;16.78;100.00
11314;BME280;5712;48.858;9.206;2022-07-29T02:54:20;97896.84;;;16.76;100.00
11314;BME280;5712;48.858;9.206;2022-07-29T02:56:49;97888.16;;;16.74;100.00
11314;BME280;5712;48.858;9.206;2022-07-29T02:59:24;97894.06;;;16.78;100.00
11314;BME280;5712;48.858;9.206;2022-07-29T03:01:55;97889.84;;;16.75;100.00
11314;BME280;5712;48.858;9.206;2022-07-29T03:04:24;97892.50;;;16.75;100.00
11314;BME280;5712;48.858;9.206;2022-07-29T03:06:53;97891.53;;;16.76;100.00
11314;BME280;5712;48.858;9.206;2022-07-29T03:09:22;97895.19;;;16.75;100.00
11314;BME280;5712;48.858;9.206;2022-07-29T03:11:49;97896.56;;;16.79;100.00
11314;BME280;5712;48.858;9.206;2022-07-29T03:14:17;97900.78;;;16.82;100.00
11314;BME280;5712;48.858;9.206;2022-07-29T03:16:44;97904.13;;;16.84;100.00
11314;BME280;5712;48.858;9.206;2022-07-29T03:19:13;97898.78;;;16.84;100.00
11314;BME280;5712;48.858;9.206;2022-07-29T03:21:40;97889.94;;;16.83;100.00
11314;BME280;5712;48.858;9.206;2022-07-29T03:24:07;97892.31;;;16.86;100.00
11314;BME280;5712;48.858;9.206;2022-07-29T03:26:33;97897.06;;;16.92;100.00
11314;BME280;5712;48.858;9.206;2022-07-29T03:29:00;97895.13;;;17.02;100.00
11314;BME280;5712;48.858;9.206;2022-07-29T03:31:27;97891.84;;;17.08;100.00
11314;BME280;5712;48.858;9.206;2022-07-29T03:33:54;97888.56;;;17.14;100.00
11314;BME280;5712;48.858;9.206;2022-07-29T03:36:22;97887.97;;;17.20;100.00
11314;BME280;5712;48.858;9.206;2022-07-29T03:38:50;97897.06;;;17.27;100.00
11314;BME280;5712;48.858;9.206;2022-07-29T03:41:17;97906.56;;;17.39;100.00
11314;BME280;5712;48.858;9.206;2022-07-29T03:43:46;97896.41;;;17.43;100.00
11314;BME280;5712;48.858;9.206;2022-07-29T03:46:13;97899.22;;;17.41;100.00
11314;BME280;5712;48.858;9.206;2022-07-29T03:48:46;97902.28;;;17.46;100.00
11314;BME280;5712;48.858;9.206;2022-07-29T03:51:14;97900.28;;;17.48;100.00
11314;BME280;5712;48.858;9.206;2022-07-29T03:53:42;97910.97;;;17.48;100.00
11314;BME280;5712;48.858;9.206;2022-07-29T03:56:09;97908.53;;;17.55;100.00
11314;BME280;5712;48.858;9.206;2022-07-29T03:58:37;97902.72;;;17.59;100.00
11314;BME280;5712;48.858;9.206;2022-07-29T04:01:05;97913.03;;;17.54;100.00
11314;BME280;5712;48.858;9.206;2022-07-29T04:03:31;97906.00;;;17.53;100.00
11314;BME280;5712;48.858;9.206;2022-07-29T04:06:00;97902.66;;;17.51;100.00
11314;BME280;5712;48.858;9.206;2022-07-29T04:08:26;97893.66;;;17.52;100.00
11314;BME280;5712;48.858;9.206;2022-07-29T04:10:54;97904.34;;;17.52;100.00
11314;BME280;5712;48.858;9.206;2022-07-29T04:13:21;97907.31;;;17.49;100.00
11314;BME280;5712;48.858;9.206;2022-07-29T04:15:48;97906.47;;;17.49;100.00
11314;BME280;5712;48.858;9.206;2022-07-29T04:18:14;97908.44;;;17.47;100.00
11314;BME280;5712;48.858;9.206;2022-07-29T04:20:41;97909.31;;;17.47;100.00
11314;BME280;5712;48.858;9.206;2022-07-29T04:23:07;97911.28;;;17.45;100.00
11314;BME280;5712;48.858;9.206;2022-07-29T04:25:37;97911.91;;;17.39;100.00
11314;BME280;5712;48.858;9.206;2022-07-29T04:28:05;97913.59;;;17.40;100.00
11314;BME280;5712;48.858;9.206;2022-07-29T04:30:33;97911.59;;;17.42;100.00
11314;BME280;5712;48.858;9.206;2022-07-29T04:32:59;97913.25;;;17.43;100.00
11314;BME280;5712;48.858;9.206;2022-07-29T04:35:27;97917.78;;;17.43;100.00
11314;BME280;5712;48.858;9.206;2022-07-29T04:37:53;97915.78;;;17.45;100.00
11314;BME280;5712;48.858;9.206;2022-07-29T04:40:20;97917.47;;;17.46;100.00
11314;BME280;5712;48.858;9.206;2022-07-29T04:42:47;97913.66;;;17.48;100.00
11314;BME280;5712;48.858;9.206;2022-07-29T04:45:15;97917.53;;;17.71;100.00
11314;BME280;5712;48.858;9.206;2022-07-29T04:47:41;97913.34;;;17.94;100.00
11314;BME280;5712;48.858;9.206;2022-07-29T04:50:09;97909.50;;;17.97;100.00
11314;BME280;5712;48.858;9.206;2022-07-29T04:52:35;97917.00;;;17.93;100.00
11314;BME280;5712;48.858;9.206;2022-07-29T04:55:02;97915.84;;;17.96;100.00
11314;BME280;5712;48.858;9.206;2022-07-29T04:57:29;97914.69;;;17.98;100.00
11314;BME280;5712;48.858;9.206;2022-07-29T04:59:56;97913.41;;;18.02;100.00
11314;BME280;5712;48.858;9.206;2022-07-29T05:02:24;97910.38;;;18.05;100.00
11314;BME280;5712;48.858;9.206;2022-07-29T05:04:51;97911.09;;;18.07;100.00
11314;BME280;5712;48.858;9.206;2022-07-29T05:07:17;97910.91;;;18.09;100.00
11314;BME280;5712;48.858;9.206;2022-07-29T05:09:44;97920.47;;;18.11;100.00
11314;BME280;5712;48.858;9.206;2022-07-29T05:12:10;97915.13;;;18.11;100.00
11314;BME280;5712;48.858;9.206;2022-07-29T05:14:37;97920.16;;;18.14;100.00
11314;BME280;5712;48.858;9.206;2022-07-29T05:17:03;97911.66;;;18.19;100.00
11314;BME280;5712;48.858;9.206;2022-07-29T05:19:31;97916.53;;;18.23;100.00
11314;BME280;5712;48.858;9.206;2022-07-29T05:21:58;97919.63;;;18.36;100.00
11314;BME280;5712;48.858;9.206;2022-07-29T05:24:25;97919.41;;;18.55;100.00
11314;BME280;5712;48.858;9.206;2022-07-29T05:26:51;97921.19;;;18.80;100.00
11314;BME280;5712;48.858;9.206;2022-07-29T05:29:18;97914.59;;;19.16;100.00
11314;BME280;5712;48.858;9.206;2022-07-29T05:31:44;97922.41;;;19.83;100.00
11314;BME280;5712;48.858;9.206;2022-07-29T05:34:11;97920.59;;;20.54;100.00
11314;BME280;5712;48.858;9.206;2022-07-29T05:36:39;97918.38;;;21.04;100.00
11314;BME280;5712;48.858;9.206;2022-07-29T05:39:05;97914.91;;;21.26;100.00
11314;BME280;5712;48.858;9.206;2022-07-29T05:41:32;97920.69;;;21.38;100.00
11314;BME280;5712;48.858;9.206;2022-07-29T05:43:59;97924.72;;;21.64;99.82
11314;BME280;5712;48.858;9.206;2022-07-29T05:46:25;97926.81;;;21.99;96.70
11314;BME280;5712;48.858;9.206;2022-07-29T05:48:52;97938.47;;;22.51;92.62
11314;BME280;5712;48.858;9.206;2022-07-29T05:51:18;97936.19;;;22.98;89.40
11314;BME280;5712;48.858;9.206;2022-07-29T05:53:46;97936.34;;;23.26;87.94
11314;BME280;5712;48.858;9.206;2022-07-29T05:56:13;97937.94;;;23.35;86.09
11314;BME280;5712;48.858;9.206;2022-07-29T05:58:39;97944.25;;;23.27;86.30
11314;BME280;5712;48.858;9.206;2022-07-29T06:01:06;97945.22;;;23.55;84.86
11314;BME280;5712;48.858;9.206;2022-07-29T06:03:32;97945.94;;;23.64;83.52
11314;BME280;5712;48.858;9.206;2022-07-29T06:05:59;97950.31;;;24.07;81.82
11314;BME280;5712;48.858;9.206;2022-07-29T06:08:26;97950.97;;;24.98;77.90
11314;BME280;5712;48.858;9.206;2022-07-29T06:10:54;97947.91;;;25.54;74.30
11314;BME280;5712;48.858;9.206;2022-07-29T06:13:20;97948.03;;;26.06;71.73
11314;BME280;5712;48.858;9.206;2022-07-29T06:15:47;97955.53;;;26.30;70.50
11314;BME280;5712;48.858;9.206;2022-07-29T06:18:13;97952.00;;;26.30;70.21
11314;BME280;5712;48.858;9.206;2022-07-29T06:20:40;97956.38;;;26.37;69.04
11314;BME280;5712;48.858;9.206;2022-07-29T06:23:06;97959.28;;;26.10;69.60
11314;BME280;5712;48.858;9.206;2022-07-29T06:25:33;97965.94;;;26.07;69.54
11314;BME280;5712;48.858;9.206;2022-07-29T06:28:03;97967.19;;;26.31;68.60
11314;BME280;5712;48.858;9.206;2022-07-29T06:30:30;97959.53;;;26.60;66.98
11314;BME280;5712;48.858;9.206;2022-07-29T06:32:56;97971.38;;;26.66;65.81
11314;BME280;5712;48.858;9.206;2022-07-29T06:35:23;97967.84;;;26.46;67.00
11314;BME280;5712;48.858;9.206;2022-07-29T06:37:49;97965.34;;;26.44;66.74
11314;BME280;5712;48.858;9.206;2022-07-29T06:40:16;97966.81;;;26.60;66.17
11314;BME280;5712;48.858;9.206;2022-07-29T06:43:01;97967.13;;;27.08;62.88
11314;BME280;5712;48.858;9.206;2022-07-29T06:45:28;97969.53;;;26.66;63.77
11314;BME280;5712;48.858;9.206;2022-07-29T06:47:55;97973.69;;;26.36;65.57
11314;BME280;5712;48.858;9.206;2022-07-29T06:50:21;97978.88;;;26.05;66.24
11314;BME280;5712;48.858;9.206;2022-07-29T06:52:48;97974.81;;;25.69;67.17
11314;BME280;5712;48.858;9.206;2022-07-29T06:55:14;97973.69;;;25.44;68.98
11314;BME280;5712;48.858;9.206;2022-07-29T06:57:41;97978.31;;;25.16;70.14
11314;BME280;5712;48.858;9.206;2022-07-29T07:00:09;97979.25;;;24.95;71.18
11314;BME280;5712;48.858;9.206;2022-07-29T07:02:37;97982.47;;;24.78;72.33
11314;BME280;5712;48.858;9.206;2022-07-29T07:05:04;97984.28;;;24.71;73.15
11314;BME280;5712;48.858;9.206;2022-07-29T07:07:31;97991.13;;;24.67;72.64
11314;BME280;5712;48.858;9.206;2022-07-29T07:09:57;97985.41;;;24.55;71.20
11314;BME280;5712;48.858;9.206;2022-07-29T07:12:24;97985.69;;;24.60;70.75
11314;BME280;5712;48.858;9.206;2022-07-29T07:14:50;97989.91;;;24.69;71.37
11314;BME280;5712;48.858;9.206;2022-07-29T07:17:17;97994.38;;;24.83;71.87
11314;BME280;5712;48.858;9.206;2022-07-29T07:19:45;97986.47;;;24.88;71.55
11314;BME280;5712;48.858;9.206;2022-07-29T07:22:11;97993.47;;;24.76;70.84
11314;BME280;5712;48.858;9.206;2022-07-29T07:24:38;97990.56;;;24.71;72.05
11314;BME280;5712;48.858;9.206;2022-07-29T07:27:04;97990.94;;;24.68;72.43
11314;BME280;5712;48.858;9.206;2022-07-29T07:29:31;97994.03;;;24.65;72.25
11314;BME280;5712;48.858;9.206;2022-07-29T07:31:58;98007.16;;;24.68;71.09
11314;BME280;5712;48.858;9.206;2022-07-29T07:34:24;97992.88;;;24.53;70.63
11314;BME280;5712;48.858;9.206;2022-07-29T07:36:52;97997.19;;;24.48;71.16
11314;BME280;5712;48.858;9.206;2022-07-29T07:39:18;97999.06;;;24.47;71.08
11314;BME280;5712;48.858;9.206;2022-07-29T07:41:45;97999.88;;;24.48;70.27
11314;BME280;5712;48.858;9.206;2022-07-29T07:44:11;98003.13;;;24.58;71.10
11314;BME280;5712;48.858;9.206;2022-07-29T07:46:38;97997.81;;;24.71;70.12
11314;BME280;5712;48.858;9.206;2022-07-29T07:49:05;98007.66;;;24.78;67.32
11314;BME280;5712;48.858;9.206;2022-07-29T07:51:31;98004.28;;;24.76;68.77
11314;BME280;5712;48.858;9.206;2022-07-29T07:53:59;97994.22;;;24.98;67.87
11314;BME280;5712;48.858;9.206;2022-07-29T07:56:26;97997.75;;;25.26;64.95
11314;BME280;5712;48.858;9.206;2022-07-29T07:58:52;98001.56;;;25.38;64.78
11314;BME280;5712;48.858;9.206;2022-07-29T08:01:19;97996.38;;;25.49;63.79
11314;BME280;5712;48.858;9.206;2022-07-29T08:03:48;97997.47;;;25.55;62.73
11314;BME280;5712;48.858;9.206;2022-07-29T08:06:15;98001.66;;;25.64;62.17
11314;BME280;5712;48.858;9.206;2022-07-29T08:08:42;98006.50;;;25.81;61.85
11314;BME280;5712;48.858;9.206;2022-07-29T08:11:09;98006.56;;;25.94;60.80
11314;BME280;5712;48.858;9.206;2022-07-29T08:13:37;98004.72;;;26.14;59.59
11314;BME280;5712;48.858;9.206;2022-07-29T08:16:05;98001.41;;;26.38;58.61
11314;BME280;5712;48.858;9.206;2022-07-29T08:18:39;98002.22;;;26.32;56.70
11314;BME280;5712;48.858;9.206;2022-07-29T08:21:06;98003.88;;;26.20;58.71
11314;BME280;5712;48.858;9.206;2022-07-29T08:23:32;98009.28;;;26.07;60.39
11314;BME280;5712;48.858;9.206;2022-07-29T08:26:03;98007.38;;;25.95;60.18
11314;BME280;5712;48.858;9.206;2022-07-29T08:28:31;98004.63;;;25.75;61.40
11314;BME280;5712;48.858;9.206;2022-07-29T08:30:58;97997.72;;;25.79;60.31
11314;BME280;5712;48.858;9.206;2022-07-29T08:33:25;98004.41;;;25.83;60.53
11314;BME280;5712;48.858;9.206;2022-07-29T08:35:51;98001.31;;;25.86;61.21
11314;BME280;5712;48.858;9.206;2022-07-29T08:38:18;98004.25;;;25.91;60.42
11314;BME280;5712;48.858;9.206;2022-07-29T08:40:45;98001.50;;;25.85;61.27
11314;BME280;5712;48.858;9.206;2022-07-29T08:43:12;98007.56;;;25.87;61.87
11314;BME280;5712;48.858;9.206;2022-07-29T08:45:43;98001.97;;;25.95;59.78
11314;BME280;5712;48.858;9.206;2022-07-29T08:48:11;97998.44;;;25.94;60.06
11314;BME280;5712;48.858;9.206;2022-07-29T08:50:38;98003.44;;;25.97;59.41
11314;BME280;5712;48.858;9.206;2022-07-29T08:53:07;98003.47;;;26.04;57.31
11314;BME280;5712;48.858;9.206;2022-07-29T08:55:38;97991.78;;;26.10;56.23
11314;BME280;5712;48.858;9.206;2022-07-29T08:58:07;97997.84;;;26.05;54.73
11314;BME280;5712;48.858;9.206;2022-07-29T09:00:34;97996.38;;;26.16;52.66
11314;BME280;5712;48.858;9.206;2022-07-29T09:03:04;97995.53;;;26.15;53.39
11314;BME280;5712;48.858;9.206;2022-07-29T09:05:31;97993.47;;;26.24;51.02
11314;BME280;5712;48.858;9.206;2022-07-29T09:07:59;97999.72;;;26.18;52.09
11314;BME280;5712;48.858;9.206;2022-07-29T09:10:26;97998.91;;;26.30;50.82
11314;BME280;5712;48.858;9.206;2022-07-29T09:12:54;98001.38;;;26.19;52.74
11314;BME280;5712;48.858;9.206;2022-07-29T09:15:21;98006.59;;;26.33;51.52
11314;BME280;5712;48.858;9.206;2022-07-29T09:17:49;98000.56;;;26.44;50.09
11314;BME280;5712;48.858;9.206;2022-07-29T09:20:21;98006.19;;;26.49;49.83
11314;BME280;5712;48.858;9.206;2022-07-29T09:22:48;97999.56;;;26.65;49.42
11314;BME280;5712;48.858;9.206;2022-07-29T09:25:32;98009.34;;;26.66;49.22
11314;BME280;5712;48.858;9.206;2022-07-29T09:28:05;98001.44;;;26.71;49.01
11314;BME280;5712;48.858;9.206;2022-07-29T09:30:32;98002.69;;;26.55;49.36
11314;BME280;5712;48.858;9.206;2022-07-29T09:33:00;97994.34;;;26.57;50.27
11314;BME280;5712;48.858;9.206;2022-07-29T09:35:29;97998.72;;;26.64;50.60
11314;BME280;5712;48.858;9.206;2022-07-29T09:37:56;97997.66;;;26.78;50.28
11314;BME280;5712;48.858;9.206;2022-07-29T09:40:24;97994.72;;;26.86;50.08
11314;BME280;5712;48.858;9.206;2022-07-29T09:42:52;97987.38;;;27.06;50.96
11314;BME280;5712;48.858;9.206;2022-07-29T09:45:28;97991.31;;;27.23;49.03
11314;BME280;5712;48.858;9.206;2022-07-29T09:47:55;97990.69;;;27.27;48.33
11314;BME280;5712;48.858;9.206;2022-07-29T09:50:36;97986.53;;;27.12;48.72
11314;BME280;5712;48.858;9.206;2022-07-29T09:53:03;97984.06;;;26.98;49.76
11314;BME280;5712;48.858;9.206;2022-07-29T09:55:29;97973.59;;;27.01;49.64
11314;BME280;5712;48.858;9.206;2022-07-29T09:58:14;97978.16;;;27.20;49.60
11314;BME280;5712;48.858;9.206;2022-07-29T10:00:44;97980.63;;;27.34;47.04
11314;BME280;5712;48.858;9.206;2022-07-29T10:03:11;97986.88;;;27.42;48.72
11314;BME280;5712;48.858;9.206;2022-07-29T10:05:39;97976.19;;;27.46;49.28
11314;BME280;5712;48.858;9.206;2022-07-29T10:08:07;97976.75;;;27.61;48.85
11314;BME280;5712;48.858;9.206;2022-07-29T10:10:36;97972.88;;;27.44;48.70
11314;BME280;5712;48.858;9.206;2022-07-29T10:13:04;97980.66;;;27.28;49.58
11314;BME280;5712;48.858;9.206;2022-07-29T10:15:32;97980.03;;;27.13;50.21
11314;BME280;5712;48.858;9.206;2022-07-29T10:18:02;97981.75;;;27.01;51.10
11314;BME280;5712;48.858;9.206;2022-07-29T10:20:29;97978.22;;;26.94;51.03
11314;BME280;5712;48.858;9.206;2022-07-29T10:22:57;97974.06;;;26.92;50.69
11314;BME280;5712;48.858;9.206;2022-07-29T10:25:25;97973.44;;;26.90;50.51
11314;BME280;5712;48.858;9.206;2022-07-29T10:27:53;97976.38;;;26.82;49.96
11314;BME280;5712;48.858;9.206;2022-07-29T10:30:21;97983.91;;;26.73;50.10
11314;BME280;5712;48.858;9.206;2022-07-29T10:33:11;97969.69;;;26.71;50.31
11314;BME280;5712;48.858;9.206;2022-07-29T10:36:02;97974.09;;;26.59;50.31
11314;BME280;5712;48.858;9.206;2022-07-29T10:38:50;97971.56;;;26.51;51.09
11314;BME280;5712;48.858;9.206;2022-07-29T10:41:37;97969.72;;;26.45;51.41
11314;BME280;5712;48.858;9.206;2022-07-29T10:44:12;97965.53;;;26.43;51.58
11314;BME280;5712;48.858;9.206;2022-07-29T10:46:40;97959.91;;;26.31;51.02
11314;BME280;5712;48.858;9.206;2022-07-29T10:49:08;97958.03;;;26.25;51.42
11314;BME280;5712;48.858;9.206;2022-07-29T10:51:54;97965.75;;;26.28;51.12
11314;BME280;5712;48.858;9.206;2022-07-29T10:54:56;97968.69;;;26.14;52.32
11314;BME280;5712;48.858;9.206;2022-07-29T10:57:27;97974.72;;;26.03;52.37
11314;BME280;5712;48.858;9.206;2022-07-29T11:00:27;97972.19;;;26.01;52.98
11314;BME280;5712;48.858;9.206;2022-07-29T11:02:54;97976.34;;;26.10;51.78
11314;BME280;5712;48.858;9.206;2022-07-29T11:05:23;97977.81;;;26.00;52.30
11314;BME280;5712;48.858;9.206;2022-07-29T11:08:25;97972.59;;;25.92;51.77
11314;BME280;5712;48.858;9.206;2022-07-29T11:14:03;97987.34;;;24.13;60.87
11314;BME280;5712;48.858;9.206;2022-07-29T11:16:58;97977.72;;;23.68;66.20
11314;BME280;5712;48.858;9.206;2022-07-29T11:19:24;97979.41;;;23.34;72.28
11314;BME280;5712;48.858;9.206;2022-07-29T11:21:51;97984.88;;;23.11;78.29
11314;BME280;5712;48.858;9.206;2022-07-29T11:24:20;97978.09;;;23.01;77.95
11314;BME280;5712;48.858;9.206;2022-07-29T11:27:13;97986.69;;;23.19;76.63
11314;BME280;5712;48.858;9.206;2022-07-29T11:29:54;97982.66;;;23.29;77.20
11314;BME280;5712;48.858;9.206;2022-07-29T11:32:23;97986.38;;;23.28;81.48
11314;BME280;5712;48.858;9.206;2022-07-29T11:35:10;97990.91;;;23.42;82.53
11314;BME280;5712;48.858;9.206;2022-07-29T11:37:37;97996.69;;;23.75;81.26
11314;BME280;5712;48.858;9.206;2022-07-29T11:40:21;98000.63;;;24.14;79.28
11314;BME280;5712;48.858;9.206;2022-07-29T11:42:50;97989.59;;;24.37;77.95
11314;BME280;5712;48.858;9.206;2022-07-29T11:45:25;97984.03;;;24.59;77.15
11314;BME280;5712;48.858;9.206;2022-07-29T11:47:58;97992.78;;;24.95;75.67
11314;BME280;5712;48.858;9.206;2022-07-29T11:50:34;97995.72;;;25.34;76.23
11314;BME280;5712;48.858;9.206;2022-07-29T11:53:03;97992.88;;;25.55;72.96
11314;BME280;5712;48.858;9.206;2022-07-29T11:55:37;97987.53;;;25.68;72.66
11314;BME280;5712;48.858;9.206;2022-07-29T11:58:05;97983.38;;;25.85;70.69
11314;BME280;5712;48.858;9.206;2022-07-29T12:00:33;97989.28;;;26.08;69.32
11314;BME280;5712;48.858;9.206;2022-07-29T12:03:02;97984.72;;;26.28;67.85
11314;BME280;5712;48.858;9.206;2022-07-29T12:05:36;97978.25;;;26.49;66.76
11314;BME280;5712;48.858;9.206;2022-07-29T12:08:05;97975.97;;;26.78;65.67
11314;BME280;5712;48.858;9.206;2022-07-29T12:10:32;97972.59;;;27.02;63.78
11314;BME280;5712;48.858;9.206;2022-07-29T12:12:59;97975.47;;;27.13;62.55
11314;BME280;5712;48.858;9.206;2022-07-29T12:15:27;97968.56;;;27.24;61.56
11314;BME280;5712;48.858;9.206;2022-07-29T12:17:53;97978.56;;;27.30;61.19
11314;BME280;5712;48.858;9.206;2022-07-29T12:20:24;97974.38;;;27.34;60.34
11314;BME280;5712;48.858;9.206;2022-07-29T12:22:51;97971.22;;;27.37;59.95
11314;BME280;5712;48.858;9.206;2022-07-29T12:25:19;97978.94;;;27.40;58.41
11314;BME280;5712;48.858;9.206;2022-07-29T12:27:45;97980.81;;;27.39;56.45
11314;BME280;5712;48.858;9.206;2022-07-29T12:30:14;97977.91;;;27.41;54.58
11314;BME280;5712;48.858;9.206;2022-07-29T12:32:44;97980.81;;;27.39;51.61
11314;BME280;5712;48.858;9.206;2022-07-29T12:35:13;97987.16;;;27.27;50.88
11314;BME280;5712;48.858;9.206;2022-07-29T12:37:42;97981.34;;;27.04;49.85
11314;BME280;5712;48.858;9.206;2022-07-29T12:40:10;97989.91;;;26.88;49.12
11314;BME280;5712;48.858;9.206;2022-07-29T12:42:38;97979.72;;;26.77;48.95
11314;BME280;5712;48.858;9.206;2022-07-29T12:45:06;97980.38;;;26.66;49.21
11314;BME280;5712;48.858;9.206;2022-07-29T12:47:33;97992.66;;;26.62;49.44
11314;BME280;5712;48.858;9.206;2022-07-29T12:50:11;97981.22;;;26.60;49.16
11314;BME280;5712;48.858;9.206;2022-07-29T12:52:39;97983.06;;;26.60;48.41
11314;BME280;5712;48.858;9.206;2022-07-29T12:55:06;97979.34;;;26.54;49.22
11314;BME280;5712;48.858;9.206;2022-07-29T12:57:44;97985.97;;;26.45;49.79
11314;BME280;5712;48.858;9.206;2022-07-29T13:00:13;97989.50;;;26.39;50.86
11314;BME280;5712;48.858;9.206;2022-07-29T13:02:41;97990.13;;;26.28;51.48
11314;BME280;5712;48.858;9.206;2022-07-29T13:05:10;97988.69;;;26.19;52.69
11314;BME280;5712;48.858;9.206;2022-07-29T13:07:38;97989.28;;;26.08;53.98
11314;BME280;5712;48.858;9.206;2022-07-29T13:10:13;97993.44;;;26.04;54.65
11314;BME280;5712;48.858;9.206;2022-07-29T13:13:04;98000.09;;;25.95;55.41
11314;BME280;5712;48.858;9.206;2022-07-29T13:15:31;97992.97;;;25.81;56.51
11314;BME280;5712;48.858;9.206;2022-07-29T13:17:58;97997.31;;;25.69;57.14
11314;BME280;5712;48.858;9.206;2022-07-29T13:20:28;98001.03;;;25.62;57.96
11314;BME280;5712;48.858;9.206;2022-07-29T13:22:56;98005.78;;;25.53;58.69